createdAt,value
2018-07-14T00:00:22.296Z,6.28
2018-07-14T00:02:56.285Z,6.53
2018-07-14T00:05:26.816Z,6.15
2018-07-14T00:07:57.244Z,6.28
2018-07-14T00:10:27.169Z,6.08
2018-07-14T00:13:04.549Z,6.78
2018-07-14T00:15:36.309Z,6.12
2018-07-14T00:18:08.301Z,6.67
2018-07-14T00:20:39.496Z,6.22
2018-07-14T00:23:11.389Z,6.40
2018-07-14T00:25:51.619Z,6.95
2018-07-14T00:28:21.784Z,6.65
2018-07-14T00:30:56.316Z,6.65
2018-07-14T00:33:27.329Z,6.78
2018-07-14T00:35:58.000Z,6.53
2018-07-14T00:38:28.912Z,7.15
2018-07-14T00:41:01.538Z,6.80
2018-07-14T00:43:36.489Z,6.55
2018-07-14T00:46:11.241Z,7.08
2018-07-14T00:48:41.441Z,6.78
2018-07-14T00:51:11.908Z,6.83
2018-07-14T00:53:45.036Z,6.87
2018-07-14T00:56:16.024Z,6.78
2018-07-14T00:58:45.748Z,6.90
2018-07-14T01:01:19.015Z,7.25
2018-07-14T01:03:52.911Z,6.97
2018-07-14T01:06:29.933Z,6.90
2018-07-14T01:08:59.604Z,7.25
2018-07-14T01:11:31.054Z,7.60
2018-07-14T01:14:00.891Z,7.25
2018-07-14T01:16:30.371Z,6.87
2018-07-14T01:19:01.951Z,7.25
2018-07-14T01:21:35.624Z,7.47
2018-07-14T01:24:06.785Z,7.35
2018-07-14T01:26:39.760Z,7.37
2018-07-14T01:29:09.165Z,7.70
2018-07-14T01:31:41.269Z,8.45
2018-07-14T01:34:12.784Z,7.67
2018-07-14T01:36:43.492Z,7.65
2018-07-14T01:39:14.917Z,7.78
2018-07-14T01:41:48.184Z,7.30
2018-07-14T01:44:19.144Z,7.30
2018-07-14T01:46:49.945Z,7.50
2018-07-14T01:49:24.770Z,7.28
2018-07-14T01:51:55.474Z,8.05
2018-07-14T01:54:27.662Z,7.67
2018-07-14T01:56:58.869Z,8.73
2018-07-14T01:59:28.617Z,7.72
2018-07-14T02:02:00.352Z,8.15
2018-07-14T02:04:31.888Z,8.60
2018-07-14T02:07:07.916Z,8.58
2018-07-14T02:09:39.472Z,8.43
2018-07-14T02:12:10.772Z,8.25
2018-07-14T02:14:42.125Z,8.35
2018-07-14T02:17:15.611Z,8.45
2018-07-14T02:19:47.811Z,8.18
2018-07-14T02:22:21.155Z,8.35
2018-07-14T02:24:53.017Z,9.10
2018-07-14T02:27:33.224Z,8.80
2018-07-14T02:30:04.189Z,8.38
2018-07-14T02:32:35.614Z,8.05
2018-07-14T02:35:08.440Z,8.48
2018-07-14T02:37:40.968Z,8.15
2018-07-14T02:40:11.440Z,8.78
2018-07-14T02:42:46.431Z,8.30
2018-07-14T02:45:20.633Z,8.55
2018-07-14T02:47:50.925Z,7.87
2018-07-14T02:50:22.493Z,8.68
2018-07-14T02:52:51.801Z,8.78
2018-07-14T02:55:24.081Z,8.30
2018-07-14T02:57:54.161Z,9.18
2018-07-14T03:00:28.822Z,9.50
2018-07-14T03:02:58.560Z,8.85
2018-07-14T03:05:29.756Z,8.03
2018-07-14T03:08:00.669Z,8.53
2018-07-14T03:10:30.392Z,8.38
2018-07-14T03:13:01.084Z,8.63
2018-07-14T03:15:31.973Z,9.28
2018-07-14T03:18:05.524Z,9.75
2018-07-14T03:20:36.680Z,9.23
2018-07-14T03:23:09.561Z,9.75
2018-07-14T03:25:39.359Z,9.68
2018-07-14T03:28:10.194Z,9.38
2018-07-14T03:30:39.720Z,9.48
2018-07-14T03:33:10.007Z,9.53
2018-07-14T03:35:41.392Z,8.80
2018-07-14T03:38:12.211Z,9.15
2018-07-14T03:40:45.741Z,9.98
2018-07-14T03:45:54.049Z,10.18
2018-07-14T03:48:24.749Z,9.55
2018-07-14T03:50:56.954Z,9.65
2018-07-14T03:53:27.778Z,9.65
2018-07-14T03:55:56.858Z,10.30
2018-07-14T03:58:29.325Z,9.68
2018-07-14T04:01:03.805Z,9.48
2018-07-14T04:03:33.792Z,9.83
2018-07-14T04:06:03.464Z,9.48
2018-07-14T04:08:33.311Z,9.58
2018-07-14T04:11:02.652Z,9.15
2018-07-14T04:13:34.985Z,9.38
2018-07-14T04:16:04.664Z,10.03
2018-07-14T04:18:35.121Z,8.65
2018-07-14T04:21:05.785Z,8.98
2018-07-14T04:23:36.488Z,7.92
2018-07-14T04:26:05.852Z,9.18
2018-07-14T04:28:35.976Z,9.15
2018-07-14T04:31:07.337Z,9.13
2018-07-14T04:33:38.569Z,8.50
2018-07-14T04:36:10.980Z,9.20
2018-07-14T04:38:42.821Z,9.13
2018-07-14T04:41:14.565Z,9.15
2018-07-14T04:43:45.507Z,8.93
2018-07-14T04:46:15.724Z,8.40
2018-07-14T04:48:48.213Z,8.15
2018-07-14T04:51:19.804Z,8.60
2018-07-14T04:53:52.029Z,9.15
2018-07-14T04:56:23.017Z,9.00
2018-07-14T04:58:58.048Z,9.28
2018-07-14T05:01:38.644Z,9.35
2018-07-14T05:04:17.791Z,9.35
2018-07-14T05:07:07.059Z,9.48
2018-07-14T05:09:47.405Z,9.10
2018-07-14T05:12:25.105Z,9.60
2018-07-14T05:15:02.657Z,8.70
2018-07-14T05:17:45.123Z,8.13
2018-07-14T05:20:24.257Z,8.50
2018-07-14T05:25:48.150Z,7.90
2018-07-14T05:28:24.024Z,7.75
2018-07-14T05:30:56.491Z,7.75
2018-07-14T05:33:28.108Z,8.00
2018-07-14T05:36:03.797Z,7.83
2018-07-14T05:38:34.580Z,7.53
2018-07-14T05:41:06.950Z,7.28
2018-07-14T05:43:47.394Z,7.80
2018-07-14T05:46:21.159Z,7.78
2018-07-14T05:48:53.033Z,7.75
2018-07-14T05:51:23.024Z,7.22
2018-07-14T05:53:57.190Z,8.03
2018-07-14T05:56:28.340Z,7.75
2018-07-14T05:58:57.408Z,7.87
2018-07-14T06:01:26.744Z,7.72
2018-07-14T06:03:56.281Z,7.95
2018-07-14T06:06:25.694Z,7.90
2018-07-14T06:08:54.856Z,7.80
2018-07-14T06:11:23.981Z,7.70
2018-07-14T06:13:53.480Z,7.78
2018-07-14T06:16:22.697Z,7.95
2018-07-14T06:18:52.100Z,7.50
2018-07-14T06:21:22.134Z,6.92
2018-07-14T06:23:51.900Z,7.87
2018-07-14T06:26:21.009Z,7.80
2018-07-14T06:28:50.608Z,9.08
2018-07-14T06:31:19.696Z,8.58
2018-07-14T06:33:48.827Z,8.60
2018-07-14T06:36:17.921Z,7.85
2018-07-14T06:38:48.856Z,8.28
2018-07-14T06:41:20.310Z,8.40
2018-07-14T06:43:50.013Z,7.97
2018-07-14T06:46:19.624Z,7.35
2018-07-14T06:48:49.632Z,7.65
2018-07-14T06:51:18.761Z,7.80
2018-07-14T06:53:47.836Z,8.05
2018-07-14T06:56:18.836Z,6.50
2018-07-14T06:58:52.061Z,6.90
2018-07-14T07:01:21.872Z,6.35
2018-07-14T07:03:51.560Z,6.55
2018-07-14T07:06:23.238Z,7.03
2018-07-14T07:08:57.545Z,6.03
2018-07-14T07:11:29.733Z,5.62
2018-07-14T07:13:59.340Z,6.47
2018-07-14T07:16:31.625Z,6.22
2018-07-14T07:19:03.043Z,6.20
2018-07-14T07:21:32.851Z,6.28
2018-07-14T07:24:03.193Z,6.30
2018-07-14T07:26:34.432Z,6.03
2018-07-14T07:29:11.488Z,5.33
2018-07-14T07:31:43.041Z,5.85
2018-07-14T07:34:14.961Z,5.60
2018-07-14T07:36:46.153Z,5.28
2018-07-14T07:39:16.909Z,5.10
2018-07-14T07:41:52.420Z,4.97
2018-07-14T07:44:24.384Z,4.62
2018-07-14T07:46:56.853Z,4.83
2018-07-14T07:49:30.600Z,4.67
2018-07-14T07:52:00.124Z,4.95
2018-07-14T07:54:31.295Z,4.60
2018-07-14T07:57:04.973Z,4.20
2018-07-14T07:59:36.570Z,4.78
2018-07-14T08:02:09.813Z,4.78
2018-07-14T08:04:42.060Z,4.90
2018-07-14T08:07:17.208Z,4.70
2018-07-14T08:09:47.828Z,4.80
2018-07-14T08:12:17.348Z,4.85
2018-07-14T08:14:48.758Z,4.15
2018-07-14T08:17:23.804Z,3.95
2018-07-14T08:19:53.837Z,3.90
2018-07-14T08:22:26.366Z,3.83
2018-07-14T08:24:56.120Z,4.08
2018-07-14T08:27:25.728Z,3.90
2018-07-14T08:30:01.152Z,3.52
2018-07-14T08:32:30.798Z,4.30
2018-07-14T08:35:01.470Z,3.55
2018-07-14T08:37:34.988Z,3.50
2018-07-14T08:40:04.140Z,3.85
2018-07-14T08:42:33.813Z,3.83
2018-07-14T08:45:05.189Z,3.60
2018-07-14T08:47:34.356Z,3.83
2018-07-14T08:50:06.222Z,3.27
2018-07-14T08:52:36.860Z,3.40
2018-07-14T08:55:08.541Z,3.50
2018-07-14T08:57:38.052Z,3.50
2018-07-14T09:00:09.173Z,3.60
2018-07-14T09:02:40.188Z,3.30
2018-07-14T09:05:11.461Z,3.17
2018-07-14T09:07:41.349Z,3.30
2018-07-14T09:10:11.156Z,3.60
2018-07-14T09:12:44.157Z,3.85
2018-07-14T09:15:15.885Z,3.67
2018-07-14T09:17:45.740Z,3.58
2018-07-14T09:20:15.941Z,3.62
2018-07-14T09:22:47.772Z,3.65
2018-07-14T09:25:23.822Z,3.20
2018-07-14T09:27:57.430Z,3.50
2018-07-14T09:30:28.958Z,3.22
2018-07-14T09:33:00.365Z,3.05
2018-07-14T09:35:38.996Z,2.90
2018-07-14T09:38:09.822Z,2.90
2018-07-14T09:40:46.694Z,2.60
2018-07-14T09:43:17.705Z,3.00
2018-07-14T09:45:49.233Z,3.02
2018-07-14T09:48:19.865Z,3.40
2018-07-14T09:50:50.661Z,3.35
2018-07-14T09:53:24.713Z,3.35
2018-07-14T09:55:54.817Z,3.10
2018-07-14T09:58:27.978Z,3.25
2018-07-14T10:01:08.371Z,3.22
2018-07-14T10:03:40.536Z,3.47
2018-07-14T10:06:15.528Z,3.20
2018-07-14T10:08:44.651Z,3.15
2018-07-14T10:11:19.120Z,3.12
2018-07-14T10:13:49.850Z,3.37
2018-07-14T10:16:26.072Z,3.08
2018-07-14T10:19:00.597Z,2.92
2018-07-14T10:21:31.502Z,3.05
2018-07-14T10:24:09.331Z,2.75
2018-07-14T10:26:38.636Z,3.52
2018-07-14T10:29:08.798Z,2.65
2018-07-14T10:31:38.572Z,3.25
2018-07-14T10:34:08.778Z,3.08
2018-07-14T10:36:39.718Z,2.70
2018-07-14T10:39:10.558Z,3.58
2018-07-14T10:41:39.656Z,3.00
2018-07-14T10:44:11.216Z,2.92
2018-07-14T10:46:43.958Z,3.27
2018-07-14T10:49:14.413Z,3.20
2018-07-14T10:51:44.938Z,3.60
2018-07-14T10:54:16.812Z,3.10
2018-07-14T10:56:46.538Z,3.15
2018-07-14T10:59:18.472Z,3.10
2018-07-14T11:01:54.224Z,3.02
2018-07-14T11:04:25.352Z,3.30
2018-07-14T11:06:55.909Z,3.08
2018-07-14T11:09:30.532Z,3.72
2018-07-14T11:12:03.375Z,3.47
2018-07-14T11:14:34.142Z,3.40
2018-07-14T11:17:04.311Z,3.40
2018-07-14T11:19:33.645Z,3.30
2018-07-14T11:22:05.808Z,3.60
2018-07-14T11:24:36.859Z,4.00
2018-07-14T11:27:09.049Z,3.62
2018-07-14T11:29:41.117Z,3.80
2018-07-14T11:32:11.517Z,3.40
2018-07-14T11:34:43.709Z,3.35
2018-07-14T11:37:14.136Z,3.98
2018-07-14T11:39:45.211Z,3.72
2018-07-14T11:42:15.656Z,3.50
2018-07-14T11:44:45.316Z,3.70
2018-07-14T11:47:22.453Z,3.80
2018-07-14T11:50:02.192Z,3.55
2018-07-14T11:52:33.876Z,3.33
2018-07-14T11:55:05.301Z,3.62
2018-07-14T11:57:35.780Z,3.62
2018-07-14T12:00:07.434Z,4.00
2018-07-14T12:02:42.576Z,3.77
2018-07-14T12:05:16.281Z,3.67
2018-07-14T12:07:53.742Z,3.98
2018-07-14T12:10:23.801Z,3.60
2018-07-14T12:12:55.112Z,3.67
2018-07-14T12:15:25.977Z,3.70
2018-07-14T12:17:57.953Z,3.60
2018-07-14T12:20:29.340Z,3.90
2018-07-14T12:22:59.268Z,3.52
2018-07-14T12:25:32.404Z,3.83
2018-07-14T12:28:04.248Z,3.72
2018-07-14T12:30:39.266Z,3.90
2018-07-14T12:33:14.812Z,3.60
2018-07-14T12:35:45.773Z,3.52
2018-07-14T12:38:22.508Z,3.52
2018-07-14T12:40:58.689Z,3.52
2018-07-14T12:43:30.601Z,3.47
2018-07-14T12:46:00.820Z,3.70
2018-07-14T12:48:33.600Z,3.52
2018-07-14T12:51:04.103Z,3.67
2018-07-14T12:53:35.660Z,3.50
2018-07-14T12:56:04.833Z,3.50
2018-07-14T12:58:33.696Z,3.70
2018-07-14T13:01:04.904Z,3.27
2018-07-14T13:03:36.833Z,3.60
2018-07-14T13:06:10.705Z,3.77
2018-07-14T13:08:41.018Z,3.62
2018-07-14T13:11:13.253Z,3.75
2018-07-14T13:13:42.381Z,3.67
2018-07-14T13:16:13.356Z,3.70
2018-07-14T13:18:42.542Z,3.30
2018-07-14T13:21:12.464Z,3.52
2018-07-14T13:23:43.894Z,3.58
2018-07-14T13:26:13.977Z,3.75
2018-07-14T13:28:45.581Z,3.70
2018-07-14T13:31:16.057Z,3.75
2018-07-14T13:33:46.903Z,3.77
2018-07-14T13:36:16.523Z,3.40
2018-07-14T13:38:51.734Z,3.95
2018-07-14T13:41:17.608Z,3.30
2018-07-14T13:43:51.021Z,3.50
2018-07-14T13:46:21.361Z,3.05
2018-07-14T13:48:53.804Z,3.33
2018-07-14T13:51:23.601Z,3.33
2018-07-14T13:53:55.333Z,3.45
2018-07-14T13:56:26.240Z,3.70
2018-07-14T13:58:58.229Z,3.40
2018-07-14T14:01:29.709Z,3.75
2018-07-14T14:04:09.684Z,3.50
2018-07-14T14:06:49.903Z,3.20
2018-07-14T14:09:32.875Z,3.67
2018-07-14T14:12:16.815Z,3.72
2018-07-14T14:17:43.233Z,3.33
2018-07-14T14:23:01.390Z,3.22
2018-07-14T14:25:40.376Z,3.45
2018-07-14T14:28:14.261Z,3.52
2018-07-14T14:33:42.195Z,3.12
2018-07-14T14:36:13.413Z,3.27
2018-07-14T14:38:53.004Z,3.00
2018-07-14T14:41:25.508Z,2.98
2018-07-14T14:43:57.817Z,3.25
2018-07-14T14:46:27.692Z,3.12
2018-07-14T14:48:59.353Z,3.45
2018-07-14T14:51:35.089Z,3.17
2018-07-14T14:54:06.065Z,3.70
2018-07-14T14:56:36.782Z,3.47
2018-07-14T14:59:07.185Z,3.77
2018-07-14T15:01:36.245Z,3.70
2018-07-14T15:04:05.781Z,3.65
2018-07-14T15:06:34.877Z,3.50
2018-07-14T15:09:04.941Z,3.70
2018-07-14T15:11:34.030Z,3.75
2018-07-14T15:14:03.168Z,3.70
2018-07-14T15:16:32.353Z,3.55
2018-07-14T15:19:01.510Z,3.70
2018-07-14T15:21:30.599Z,3.90
2018-07-14T15:24:00.260Z,3.55
2018-07-14T15:26:30.339Z,3.67
2018-07-14T15:28:59.744Z,3.52
2018-07-14T15:31:29.497Z,3.92
2018-07-14T15:34:00.588Z,3.87
2018-07-14T15:36:29.785Z,3.70
2018-07-14T15:38:58.977Z,3.70
2018-07-14T15:41:29.517Z,4.00
2018-07-14T15:43:59.689Z,3.58
2018-07-14T15:46:28.834Z,3.40
2018-07-14T15:48:58.652Z,3.67
2018-07-14T15:51:28.256Z,3.87
2018-07-14T15:53:58.049Z,3.72
2018-07-14T15:56:29.122Z,3.40
2018-07-14T15:58:58.280Z,3.62
2018-07-14T16:01:28.296Z,3.62
2018-07-14T16:03:59.413Z,3.98
2018-07-14T16:06:32.245Z,3.35
2018-07-14T16:09:04.881Z,3.40
2018-07-14T16:11:38.529Z,3.37
2018-07-14T16:14:08.770Z,3.75
2018-07-14T16:16:39.645Z,3.98
2018-07-14T16:19:10.217Z,3.42
2018-07-14T16:21:40.542Z,3.67
2018-07-14T16:24:14.364Z,3.70
2018-07-14T16:26:43.447Z,3.62
2018-07-14T16:29:14.187Z,3.75
2018-07-14T16:31:44.869Z,3.40
2018-07-14T16:34:19.749Z,3.67
2018-07-14T16:36:50.664Z,3.65
2018-07-14T16:39:21.604Z,3.52
2018-07-14T16:41:52.044Z,3.95
2018-07-14T16:44:20.916Z,3.70
2018-07-14T16:46:53.204Z,3.55
2018-07-14T16:49:25.721Z,3.58
2018-07-14T16:51:58.993Z,3.52
2018-07-14T16:54:29.611Z,3.77
2018-07-14T16:57:00.088Z,3.52
2018-07-14T16:59:30.165Z,3.62
2018-07-14T17:02:00.194Z,3.50
2018-07-14T17:04:32.788Z,3.20
2018-07-14T17:07:02.110Z,3.12
2018-07-14T17:09:34.361Z,3.22
2018-07-14T17:12:05.681Z,3.33
2018-07-14T17:14:38.311Z,3.72
2018-07-14T17:17:10.860Z,3.25
2018-07-14T17:19:44.092Z,3.42
2018-07-14T17:22:15.471Z,3.37
2018-07-14T17:24:47.432Z,3.50
2018-07-14T17:27:16.525Z,3.72
2018-07-14T17:29:46.046Z,3.33
2018-07-14T17:32:17.072Z,3.30
2018-07-14T17:34:46.547Z,3.42
2018-07-14T17:37:20.825Z,3.70
2018-07-14T17:39:52.105Z,3.58
2018-07-14T17:42:26.334Z,3.33
2018-07-14T17:45:00.653Z,3.62
2018-07-14T17:47:32.216Z,3.33
2018-07-14T17:50:04.837Z,3.90
2018-07-14T17:52:35.704Z,3.45
2018-07-14T17:55:06.177Z,3.55
2018-07-14T17:57:37.740Z,3.75
2018-07-14T18:00:08.315Z,3.37
2018-07-14T18:02:40.820Z,3.30
2018-07-14T18:05:16.592Z,3.60
2018-07-14T18:07:46.462Z,3.45
2018-07-14T18:10:16.686Z,3.42
2018-07-14T18:12:51.002Z,3.30
2018-07-14T18:15:24.440Z,3.17
2018-07-14T18:17:55.896Z,3.50
2018-07-14T18:20:25.589Z,3.70
2018-07-14T18:22:56.848Z,3.50
2018-07-14T18:25:26.329Z,3.45
2018-07-14T18:27:56.242Z,3.42
2018-07-14T18:30:29.321Z,3.60
2018-07-14T18:32:59.273Z,3.60
2018-07-14T18:35:29.788Z,3.95
2018-07-14T18:38:10.738Z,3.92
2018-07-14T18:40:46.596Z,3.70
2018-07-14T18:43:17.248Z,3.95
2018-07-14T18:45:50.655Z,3.70
2018-07-14T18:48:20.837Z,3.58
2018-07-14T18:50:52.334Z,4.00
2018-07-14T18:55:59.831Z,4.05
2018-07-14T18:58:29.339Z,4.03
2018-07-14T19:01:01.332Z,4.37
2018-07-14T19:03:31.719Z,4.35
2018-07-14T19:06:01.025Z,4.00
2018-07-14T19:08:30.072Z,4.20
2018-07-14T19:11:01.794Z,4.08
2018-07-14T19:13:34.230Z,3.95
2018-07-14T19:16:04.080Z,4.47
2018-07-14T19:18:35.809Z,4.65
2018-07-14T19:21:11.960Z,4.30
2018-07-14T19:23:44.027Z,3.98
2018-07-14T19:26:13.477Z,4.20
2018-07-14T19:28:42.535Z,4.30
2018-07-14T19:31:13.253Z,4.20
2018-07-14T19:33:45.553Z,4.25
2018-07-14T19:36:15.029Z,4.67
2018-07-14T19:38:46.889Z,4.28
2018-07-14T19:41:18.142Z,4.50
2018-07-14T19:43:51.788Z,4.40
2018-07-14T19:46:21.568Z,4.00
2018-07-14T19:48:56.181Z,4.22
2018-07-14T19:51:26.401Z,4.55
2018-07-14T19:53:56.349Z,4.30
2018-07-14T19:56:26.534Z,4.33
2018-07-14T19:58:58.321Z,4.35
2018-07-14T20:01:28.496Z,4.90
2018-07-14T20:03:58.240Z,4.50
2018-07-14T20:06:29.596Z,4.42
2018-07-14T20:08:59.855Z,4.22
2018-07-14T20:11:29.557Z,4.25
2018-07-14T20:14:03.826Z,4.20
2018-07-14T20:16:34.441Z,4.15
2018-07-14T20:19:07.861Z,4.40
2018-07-14T20:21:38.561Z,4.37
2018-07-14T20:24:09.075Z,4.40
2018-07-14T20:26:42.900Z,4.22
2018-07-14T20:29:15.613Z,4.45
2018-07-14T20:31:50.030Z,4.85
2018-07-14T20:34:24.197Z,4.65
2018-07-14T20:36:57.817Z,4.40
2018-07-14T20:39:31.590Z,4.50
2018-07-14T20:42:02.085Z,4.72
2018-07-14T20:44:38.860Z,4.00
2018-07-14T20:47:14.871Z,4.47
2018-07-14T20:49:48.109Z,4.75
2018-07-14T20:52:18.789Z,4.90
2018-07-14T20:54:51.156Z,4.05
2018-07-14T20:57:23.221Z,4.58
2018-07-14T21:00:00.874Z,4.60
2018-07-14T21:02:30.590Z,4.37
2018-07-14T21:05:02.528Z,4.85
2018-07-14T21:07:31.660Z,4.40
2018-07-14T21:10:01.557Z,4.72
2018-07-14T21:12:36.857Z,4.90
2018-07-14T21:15:07.531Z,5.03
2018-07-14T21:17:39.449Z,4.37
2018-07-14T21:20:11.461Z,4.45
2018-07-14T21:22:42.221Z,4.42
2018-07-14T21:25:15.288Z,4.22
2018-07-14T21:27:45.603Z,4.83
2018-07-14T21:30:19.904Z,4.60
2018-07-14T21:33:01.449Z,5.25
2018-07-14T21:35:30.812Z,5.00
2018-07-14T21:38:06.649Z,5.00
2018-07-14T21:40:36.478Z,5.10
2018-07-14T21:43:05.552Z,5.10
2018-07-14T21:45:36.748Z,4.80
2018-07-14T21:48:14.222Z,5.00
2018-07-14T21:50:43.739Z,5.15
2018-07-14T21:53:16.097Z,4.67
2018-07-14T21:55:48.155Z,4.97
2018-07-14T21:58:19.492Z,5.30
2018-07-14T22:00:55.806Z,5.20
2018-07-14T22:03:27.220Z,5.40
2018-07-14T22:06:06.791Z,5.42
2018-07-14T22:08:36.779Z,4.87
2018-07-14T22:11:12.105Z,5.25
2018-07-14T22:13:42.925Z,5.80
2018-07-14T22:16:15.365Z,5.47
2018-07-14T22:18:45.005Z,5.10
2018-07-14T22:21:16.871Z,5.50
2018-07-14T22:23:47.942Z,5.00
2018-07-14T22:26:17.092Z,5.33
2018-07-14T22:28:56.133Z,4.95
2018-07-14T22:31:25.928Z,4.90
2018-07-14T22:33:56.005Z,5.33
2018-07-14T22:36:28.968Z,5.08
2018-07-14T22:39:08.900Z,5.70
2018-07-14T22:41:39.544Z,5.90
2018-07-14T22:44:10.392Z,5.15
2018-07-14T22:46:43.029Z,5.65
2018-07-14T22:49:19.705Z,5.80
2018-07-14T22:51:50.031Z,5.80
2018-07-14T22:54:20.101Z,5.45
2018-07-14T22:56:51.889Z,5.95
2018-07-14T22:59:26.808Z,5.22
2018-07-14T23:01:58.042Z,5.85
2018-07-14T23:04:31.251Z,6.22
2018-07-14T23:07:13.597Z,5.72
2018-07-14T23:09:44.557Z,5.65
2018-07-14T23:12:18.332Z,5.55
2018-07-14T23:14:54.313Z,5.55
2018-07-14T23:17:36.814Z,5.95
2018-07-14T23:20:09.192Z,5.60
2018-07-14T23:22:40.502Z,5.58
2018-07-14T23:25:14.153Z,5.90
2018-07-14T23:27:55.162Z,5.70
2018-07-14T23:30:35.776Z,5.95
2018-07-14T23:33:14.484Z,5.83
2018-07-14T23:35:52.935Z,6.28
2018-07-14T23:38:28.956Z,6.30
2018-07-14T23:41:06.641Z,6.15
2018-07-14T23:43:39.093Z,6.35
2018-07-14T23:48:54.456Z,6.45
2018-07-14T23:51:23.584Z,5.80
2018-07-14T23:53:55.134Z,5.97
2018-07-14T23:56:24.494Z,6.65
2018-07-14T23:58:54.500Z,6.33
